sensor_id;sensor_type;location;lat;lon;timestamp;pressure;altitude;pressure_sealevel;temperature
71564;BMP180;59391;52.504;13.438;2022-10-17T00:01:55;101876.00;;;18.90
71564;BMP180;59391;52.504;13.438;2022-10-17T00:04:20;101874.00;;;18.90
71564;BMP180;59391;52.504;13.438;2022-10-17T00:06:46;101842.00;;;18.90
71564;BMP180;59391;52.504;13.438;2022-10-17T00:09:11;101855.00;;;18.90
71564;BMP180;59391;52.504;13.438;2022-10-17T00:11:38;101872.00;;;18.90
71564;BMP180;59391;52.504;13.438;2022-10-17T00:14:04;101855.00;;;18.90
71564;BMP180;59391;52.504;13.438;2022-10-17T00:16:33;101873.00;;;18.90
71564;BMP180;59391;52.504;13.438;2022-10-17T00:19:02;101874.00;;;18.90
71564;BMP180;59391;52.504;13.438;2022-10-17T00:21:28;101862.00;;;18.90
71564;BMP180;59391;52.504;13.438;2022-10-17T00:23:54;101858.00;;;18.90
71564;BMP180;59391;52.504;13.438;2022-10-17T00:26:20;101836.00;;;18.90
71564;BMP180;59391;52.504;13.438;2022-10-17T00:28:48;101833.00;;;18.90
71564;BMP180;59391;52.504;13.438;2022-10-17T00:31:17;101870.00;;;18.90
71564;BMP180;59391;52.504;13.438;2022-10-17T00:33:43;101873.00;;;18.90
71564;BMP180;59391;52.504;13.438;2022-10-17T00:36:17;101860.00;;;18.80
71564;BMP180;59391;52.504;13.438;2022-10-17T00:38:47;101851.00;;;18.80
71564;BMP180;59391;52.504;13.438;2022-10-17T00:41:18;101857.00;;;18.80
71564;BMP180;59391;52.504;13.438;2022-10-17T00:46:56;101847.00;;;18.70
71564;BMP180;59391;52.504;13.438;2022-10-17T00:49:25;101853.00;;;18.70
71564;BMP180;59391;52.504;13.438;2022-10-17T00:51:59;101865.00;;;18.70
71564;BMP180;59391;52.504;13.438;2022-10-17T00:54:32;101864.00;;;18.70
71564;BMP180;59391;52.504;13.438;2022-10-17T00:56:59;101880.00;;;18.70
71564;BMP180;59391;52.504;13.438;2022-10-17T00:59:25;101871.00;;;18.70
71564;BMP180;59391;52.504;13.438;2022-10-17T01:02:06;101864.00;;;18.80
71564;BMP180;59391;52.504;13.438;2022-10-17T01:04:34;101881.00;;;18.80
71564;BMP180;59391;52.504;13.438;2022-10-17T01:07:00;101877.00;;;18.80
71564;BMP180;59391;52.504;13.438;2022-10-17T01:09:26;101843.00;;;18.80
71564;BMP180;59391;52.504;13.438;2022-10-17T01:12:12;101854.00;;;18.80
71564;BMP180;59391;52.504;13.438;2022-10-17T01:17:49;101836.00;;;18.70
71564;BMP180;59391;52.504;13.438;2022-10-17T01:21:55;101856.00;;;18.70
71564;BMP180;59391;52.504;13.438;2022-10-17T01:27:54;101834.00;;;18.60
71564;BMP180;59391;52.504;13.438;2022-10-17T01:33:23;101846.00;;;18.50
71564;BMP180;59391;52.504;13.438;2022-10-17T01:36:05;101839.00;;;18.50
71564;BMP180;59391;52.504;13.438;2022-10-17T01:38:45;101830.00;;;18.50
71564;BMP180;59391;52.504;13.438;2022-10-17T01:41:38;101836.00;;;18.50
71564;BMP180;59391;52.504;13.438;2022-10-17T01:46:53;101833.00;;;18.50
71564;BMP180;59391;52.504;13.438;2022-10-17T01:49:25;101830.00;;;18.40
71564;BMP180;59391;52.504;13.438;2022-10-17T01:52:02;101834.00;;;18.40
71564;BMP180;59391;52.504;13.438;2022-10-17T01:54:38;101815.00;;;18.40
71564;BMP180;59391;52.504;13.438;2022-10-17T01:57:11;101849.00;;;18.40
71564;BMP180;59391;52.504;13.438;2022-10-17T01:59:47;101798.00;;;18.30
71564;BMP180;59391;52.504;13.438;2022-10-17T02:02:16;101827.00;;;18.40
71564;BMP180;59391;52.504;13.438;2022-10-17T02:04:48;101804.00;;;18.40
71564;BMP180;59391;52.504;13.438;2022-10-17T02:07:17;101832.00;;;18.40
71564;BMP180;59391;52.504;13.438;2022-10-17T02:09:43;101762.00;;;18.30
71564;BMP180;59391;52.504;13.438;2022-10-17T02:12:32;101855.00;;;18.20
71564;BMP180;59391;52.504;13.438;2022-10-17T02:15:52;101844.00;;;18.00
71564;BMP180;59391;52.504;13.438;2022-10-17T02:27:18;101813.00;;;18.20
71564;BMP180;59391;52.504;13.438;2022-10-17T02:29:59;101797.00;;;18.10
71564;BMP180;59391;52.504;13.438;2022-10-17T02:32:46;101757.00;;;17.90
71564;BMP180;59391;52.504;13.438;2022-10-17T02:35:16;101768.00;;;17.90
71564;BMP180;59391;52.504;13.438;2022-10-17T02:37:44;101789.00;;;18.20
71564;BMP180;59391;52.504;13.438;2022-10-17T02:40:16;101766.00;;;18.20
71564;BMP180;59391;52.504;13.438;2022-10-17T02:42:45;101756.00;;;18.20
71564;BMP180;59391;52.504;13.438;2022-10-17T02:45:13;101848.00;;;18.20
71564;BMP180;59391;52.504;13.438;2022-10-17T02:47:58;101761.00;;;18.20
71564;BMP180;59391;52.504;13.438;2022-10-17T02:50:56;101731.00;;;18.20
71564;BMP180;59391;52.504;13.438;2022-10-17T02:53:46;101805.00;;;17.90
71564;BMP180;59391;52.504;13.438;2022-10-17T02:56:18;101822.00;;;18.20
71564;BMP180;59391;52.504;13.438;2022-10-17T02:58:57;101846.00;;;18.20
71564;BMP180;59391;52.504;13.438;2022-10-17T03:01:28;101762.00;;;18.20
71564;BMP180;59391;52.504;13.438;2022-10-17T03:04:29;101832.00;;;18.00
71564;BMP180;59391;52.504;13.438;2022-10-17T03:06:58;101749.00;;;18.10
71564;BMP180;59391;52.504;13.438;2022-10-17T03:09:23;101825.00;;;18.10
71564;BMP180;59391;52.504;13.438;2022-10-17T03:11:49;101805.00;;;18.10
71564;BMP180;59391;52.504;13.438;2022-10-17T03:14:15;101830.00;;;18.10
71564;BMP180;59391;52.504;13.438;2022-10-17T03:16:47;101741.00;;;18.10
71564;BMP180;59391;52.504;13.438;2022-10-17T03:19:12;101823.00;;;18.10
71564;BMP180;59391;52.504;13.438;2022-10-17T03:21:38;101786.00;;;18.10
71564;BMP180;59391;52.504;13.438;2022-10-17T03:24:06;101823.00;;;18.20
71564;BMP180;59391;52.504;13.438;2022-10-17T03:26:32;101804.00;;;18.20
71564;BMP180;59391;52.504;13.438;2022-10-17T03:28:58;101795.00;;;18.20
71564;BMP180;59391;52.504;13.438;2022-10-17T03:31:23;101792.00;;;18.20
71564;BMP180;59391;52.504;13.438;2022-10-17T03:33:49;101762.00;;;18.10
71564;BMP180;59391;52.504;13.438;2022-10-17T03:36:19;101801.00;;;18.20
71564;BMP180;59391;52.504;13.438;2022-10-17T03:38:47;101774.00;;;18.10
71564;BMP180;59391;52.504;13.438;2022-10-17T03:41:16;101710.00;;;18.20
71564;BMP180;59391;52.504;13.438;2022-10-17T03:43:44;101737.00;;;18.20
71564;BMP180;59391;52.504;13.438;2022-10-17T03:46:10;101784.00;;;18.20
71564;BMP180;59391;52.504;13.438;2022-10-17T03:48:38;101816.00;;;18.20
71564;BMP180;59391;52.504;13.438;2022-10-17T03:51:07;101737.00;;;18.20
71564;BMP180;59391;52.504;13.438;2022-10-17T03:53:33;101801.00;;;18.20
71564;BMP180;59391;52.504;13.438;2022-10-17T03:56:20;101802.00;;;18.20
71564;BMP180;59391;52.504;13.438;2022-10-17T03:58:46;101791.00;;;18.20
71564;BMP180;59391;52.504;13.438;2022-10-17T04:01:15;101798.00;;;18.20
71564;BMP180;59391;52.504;13.438;2022-10-17T04:03:41;101795.00;;;17.90
71564;BMP180;59391;52.504;13.438;2022-10-17T04:06:10;101802.00;;;18.10
71564;BMP180;59391;52.504;13.438;2022-10-17T04:08:36;101791.00;;;18.10
71564;BMP180;59391;52.504;13.438;2022-10-17T04:11:05;101793.00;;;18.10
71564;BMP180;59391;52.504;13.438;2022-10-17T04:13:32;101789.00;;;18.10
71564;BMP180;59391;52.504;13.438;2022-10-17T04:16:01;101766.00;;;18.10
71564;BMP180;59391;52.504;13.438;2022-10-17T04:18:27;101785.00;;;18.10
71564;BMP180;59391;52.504;13.438;2022-10-17T04:20:56;101772.00;;;18.10
71564;BMP180;59391;52.504;13.438;2022-10-17T04:23:21;101779.00;;;18.10
71564;BMP180;59391;52.504;13.438;2022-10-17T04:25:48;101787.00;;;18.10
71564;BMP180;59391;52.504;13.438;2022-10-17T04:28:14;101773.00;;;18.10
71564;BMP180;59391;52.504;13.438;2022-10-17T04:30:40;101782.00;;;18.10
71564;BMP180;59391;52.504;13.438;2022-10-17T04:33:06;101783.00;;;18.10
71564;BMP180;59391;52.504;13.438;2022-10-17T04:35:31;101790.00;;;18.10
71564;BMP180;59391;52.504;13.438;2022-10-17T04:37:57;101787.00;;;18.10
71564;BMP180;59391;52.504;13.438;2022-10-17T04:40:25;101787.00;;;18.10
71564;BMP180;59391;52.504;13.438;2022-10-17T04:42:51;101779.00;;;18.10
71564;BMP180;59391;52.504;13.438;2022-10-17T04:45:17;101772.00;;;18.10
71564;BMP180;59391;52.504;13.438;2022-10-17T04:47:42;101778.00;;;18.10
71564;BMP180;59391;52.504;13.438;2022-10-17T04:50:08;101790.00;;;18.10
71564;BMP180;59391;52.504;13.438;2022-10-17T04:52:34;101748.00;;;18.10
71564;BMP180;59391;52.504;13.438;2022-10-17T04:55:05;101776.00;;;18.10
71564;BMP180;59391;52.504;13.438;2022-10-17T04:57:34;101777.00;;;18.10
71564;BMP180;59391;52.504;13.438;2022-10-17T05:00:00;101780.00;;;18.10
71564;BMP180;59391;52.504;13.438;2022-10-17T05:02:31;101721.00;;;18.10
71564;BMP180;59391;52.504;13.438;2022-10-17T05:04:57;101794.00;;;18.10
71564;BMP180;59391;52.504;13.438;2022-10-17T05:07:23;101768.00;;;18.10
71564;BMP180;59391;52.504;13.438;2022-10-17T05:09:48;101788.00;;;18.10
71564;BMP180;59391;52.504;13.438;2022-10-17T05:12:14;101810.00;;;18.00
71564;BMP180;59391;52.504;13.438;2022-10-17T05:14:40;101696.00;;;18.00
71564;BMP180;59391;52.504;13.438;2022-10-17T05:17:05;101766.00;;;18.00
71564;BMP180;59391;52.504;13.438;2022-10-17T05:19:31;101784.00;;;18.00
71564;BMP180;59391;52.504;13.438;2022-10-17T05:21:57;101788.00;;;18.00
71564;BMP180;59391;52.504;13.438;2022-10-17T05:24:22;101747.00;;;18.00
71564;BMP180;59391;52.504;13.438;2022-10-17T05:26:56;101802.00;;;18.00
71564;BMP180;59391;52.504;13.438;2022-10-17T05:29:21;101746.00;;;18.00
71564;BMP180;59391;52.504;13.438;2022-10-17T05:31:47;101785.00;;;18.00
71564;BMP180;59391;52.504;13.438;2022-10-17T05:34:13;101725.00;;;17.80
71564;BMP180;59391;52.504;13.438;2022-10-17T05:36:39;101795.00;;;17.90
71564;BMP180;59391;52.504;13.438;2022-10-17T05:39:04;101810.00;;;17.90
71564;BMP180;59391;52.504;13.438;2022-10-17T05:41:30;101741.00;;;18.00
71564;BMP180;59391;52.504;13.438;2022-10-17T05:43:56;101729.00;;;18.00
71564;BMP180;59391;52.504;13.438;2022-10-17T05:46:22;101733.00;;;18.00
71564;BMP180;59391;52.504;13.438;2022-10-17T05:48:49;101699.00;;;18.00
71564;BMP180;59391;52.504;13.438;2022-10-17T05:51:14;101729.00;;;17.90
71564;BMP180;59391;52.504;13.438;2022-10-17T05:53:41;101737.00;;;17.90
71564;BMP180;59391;52.504;13.438;2022-10-17T05:56:10;101751.00;;;17.60
71564;BMP180;59391;52.504;13.438;2022-10-17T05:58:43;101721.00;;;17.90
71564;BMP180;59391;52.504;13.438;2022-10-17T06:01:11;101722.00;;;18.00
71564;BMP180;59391;52.504;13.438;2022-10-17T06:03:37;101749.00;;;18.00
71564;BMP180;59391;52.504;13.438;2022-10-17T06:06:09;101805.00;;;17.70
71564;BMP180;59391;52.504;13.438;2022-10-17T06:08:36;101704.00;;;18.00
71564;BMP180;59391;52.504;13.438;2022-10-17T06:11:02;101709.00;;;18.10
71564;BMP180;59391;52.504;13.438;2022-10-17T06:13:29;101810.00;;;18.10
71564;BMP180;59391;52.504;13.438;2022-10-17T06:15:54;101758.00;;;18.00
71564;BMP180;59391;52.504;13.438;2022-10-17T06:18:20;101731.00;;;18.10
71564;BMP180;59391;52.504;13.438;2022-10-17T06:20:48;101808.00;;;18.20
71564;BMP180;59391;52.504;13.438;2022-10-17T06:23:14;101771.00;;;18.20
71564;BMP180;59391;52.504;13.438;2022-10-17T06:25:40;101781.00;;;18.20
71564;BMP180;59391;52.504;13.438;2022-10-17T06:28:06;101772.00;;;18.20
71564;BMP180;59391;52.504;13.438;2022-10-17T06:30:31;101795.00;;;18.20
71564;BMP180;59391;52.504;13.438;2022-10-17T06:32:57;101793.00;;;18.20
71564;BMP180;59391;52.504;13.438;2022-10-17T06:35:23;101836.00;;;18.30
71564;BMP180;59391;52.504;13.438;2022-10-17T06:37:49;101805.00;;;18.30
71564;BMP180;59391;52.504;13.438;2022-10-17T06:40:14;101811.00;;;18.30
71564;BMP180;59391;52.504;13.438;2022-10-17T06:42:42;101799.00;;;18.30
71564;BMP180;59391;52.504;13.438;2022-10-17T06:45:08;101807.00;;;18.40
71564;BMP180;59391;52.504;13.438;2022-10-17T06:47:36;101825.00;;;18.40
71564;BMP180;59391;52.504;13.438;2022-10-17T06:50:02;101856.00;;;18.40
71564;BMP180;59391;52.504;13.438;2022-10-17T06:52:28;101827.00;;;18.50
71564;BMP180;59391;52.504;13.438;2022-10-17T06:54:53;101863.00;;;18.50
71564;BMP180;59391;52.504;13.438;2022-10-17T06:57:19;101864.00;;;18.50
71564;BMP180;59391;52.504;13.438;2022-10-17T06:59:45;101844.00;;;18.60
71564;BMP180;59391;52.504;13.438;2022-10-17T07:02:10;101802.00;;;18.60
71564;BMP180;59391;52.504;13.438;2022-10-17T07:04:36;101821.00;;;18.60
71564;BMP180;59391;52.504;13.438;2022-10-17T07:07:02;101852.00;;;18.70
71564;BMP180;59391;52.504;13.438;2022-10-17T07:09:29;101847.00;;;18.70
71564;BMP180;59391;52.504;13.438;2022-10-17T07:11:55;101812.00;;;18.80
71564;BMP180;59391;52.504;13.438;2022-10-17T07:14:21;101852.00;;;18.90
71564;BMP180;59391;52.504;13.438;2022-10-17T07:16:47;101859.00;;;18.90
71564;BMP180;59391;52.504;13.438;2022-10-17T07:19:13;101856.00;;;19.00
71564;BMP180;59391;52.504;13.438;2022-10-17T07:21:38;101884.00;;;19.10
71564;BMP180;59391;52.504;13.438;2022-10-17T07:24:04;101857.00;;;19.10
71564;BMP180;59391;52.504;13.438;2022-10-17T07:26:32;101852.00;;;19.20
71564;BMP180;59391;52.504;13.438;2022-10-17T07:28:58;101869.00;;;19.30
71564;BMP180;59391;52.504;13.438;2022-10-17T07:31:24;101854.00;;;19.40
71564;BMP180;59391;52.504;13.438;2022-10-17T07:33:50;101862.00;;;19.40
71564;BMP180;59391;52.504;13.438;2022-10-17T07:36:16;101870.00;;;19.50
71564;BMP180;59391;52.504;13.438;2022-10-17T07:38:43;101856.00;;;19.60
71564;BMP180;59391;52.504;13.438;2022-10-17T07:41:11;101870.00;;;19.80
71564;BMP180;59391;52.504;13.438;2022-10-17T07:43:38;101872.00;;;20.10
71564;BMP180;59391;52.504;13.438;2022-10-17T07:46:04;101818.00;;;20.40
71564;BMP180;59391;52.504;13.438;2022-10-17T07:48:31;101885.00;;;20.70
71564;BMP180;59391;52.504;13.438;2022-10-17T07:50:56;101873.00;;;21.10
71564;BMP180;59391;52.504;13.438;2022-10-17T07:53:22;101878.00;;;21.40
71564;BMP180;59391;52.504;13.438;2022-10-17T07:55:47;101862.00;;;21.70
71564;BMP180;59391;52.504;13.438;2022-10-17T07:58:14;101874.00;;;21.90
71564;BMP180;59391;52.504;13.438;2022-10-17T08:00:41;101858.00;;;22.10
71564;BMP180;59391;52.504;13.438;2022-10-17T08:03:06;101885.00;;;22.20
71564;BMP180;59391;52.504;13.438;2022-10-17T08:05:33;101877.00;;;22.30
71564;BMP180;59391;52.504;13.438;2022-10-17T08:07:59;101853.00;;;22.40
71564;BMP180;59391;52.504;13.438;2022-10-17T08:10:24;101870.00;;;22.40
71564;BMP180;59391;52.504;13.438;2022-10-17T08:12:55;101860.00;;;22.40
71564;BMP180;59391;52.504;13.438;2022-10-17T08:15:22;101881.00;;;22.30
71564;BMP180;59391;52.504;13.438;2022-10-17T08:17:48;101858.00;;;22.30
71564;BMP180;59391;52.504;13.438;2022-10-17T08:20:14;101873.00;;;22.40
71564;BMP180;59391;52.504;13.438;2022-10-17T08:22:40;101876.00;;;22.40
71564;BMP180;59391;52.504;13.438;2022-10-17T08:25:06;101880.00;;;22.50
71564;BMP180;59391;52.504;13.438;2022-10-17T08:27:33;101873.00;;;22.60
71564;BMP180;59391;52.504;13.438;2022-10-17T08:29:59;101877.00;;;22.70
71564;BMP180;59391;52.504;13.438;2022-10-17T08:32:29;101874.00;;;22.80
71564;BMP180;59391;52.504;13.438;2022-10-17T08:34:55;101862.00;;;22.60
71564;BMP180;59391;52.504;13.438;2022-10-17T08:37:22;101838.00;;;22.90
71564;BMP180;59391;52.504;13.438;2022-10-17T08:39:48;101863.00;;;23.00
71564;BMP180;59391;52.504;13.438;2022-10-17T08:45:47;101872.00;;;23.10
71564;BMP180;59391;52.504;13.438;2022-10-17T08:48:19;101845.00;;;23.20
71564;BMP180;59391;52.504;13.438;2022-10-17T08:53:48;101838.00;;;23.50
71564;BMP180;59391;52.504;13.438;2022-10-17T08:56:20;101838.00;;;23.80
71564;BMP180;59391;52.504;13.438;2022-10-17T08:58:47;101856.00;;;24.40
71564;BMP180;59391;52.504;13.438;2022-10-17T09:01:29;101854.00;;;25.20
71564;BMP180;59391;52.504;13.438;2022-10-17T09:10:19;101862.00;;;26.90
71564;BMP180;59391;52.504;13.438;2022-10-17T09:17:07;101872.00;;;27.80
71564;BMP180;59391;52.504;13.438;2022-10-17T09:19:59;101875.00;;;28.20
71564;BMP180;59391;52.504;13.438;2022-10-17T09:22:33;101875.00;;;28.50
71564;BMP180;59391;52.504;13.438;2022-10-17T09:25:05;101851.00;;;28.90
71564;BMP180;59391;52.504;13.438;2022-10-17T09:28:10;101865.00;;;29.30
71564;BMP180;59391;52.504;13.438;2022-10-17T09:31:02;101877.00;;;29.60
71564;BMP180;59391;52.504;13.438;2022-10-17T09:33:46;101857.00;;;29.90
71564;BMP180;59391;52.504;13.438;2022-10-17T09:36:27;101884.00;;;30.30
71564;BMP180;59391;52.504;13.438;2022-10-17T09:41:52;101865.00;;;30.90
71564;BMP180;59391;52.504;13.438;2022-10-17T09:44:51;101842.00;;;31.20
71564;BMP180;59391;52.504;13.438;2022-10-17T09:47:38;101870.00;;;31.50
71564;BMP180;59391;52.504;13.438;2022-10-17T09:50:25;101860.00;;;31.70
71564;BMP180;59391;52.504;13.438;2022-10-17T09:52:53;101836.00;;;31.80
71564;BMP180;59391;52.504;13.438;2022-10-17T09:55:45;101865.00;;;31.40
71564;BMP180;59391;52.504;13.438;2022-10-17T09:58:16;101852.00;;;31.20
71564;BMP180;59391;52.504;13.438;2022-10-17T10:00:46;101843.00;;;31.30
71564;BMP180;59391;52.504;13.438;2022-10-17T10:03:23;101856.00;;;31.30
71564;BMP180;59391;52.504;13.438;2022-10-17T10:06:38;101870.00;;;31.50
71564;BMP180;59391;52.504;13.438;2022-10-17T10:08:59;101849.00;;;31.70
71564;BMP180;59391;52.504;13.438;2022-10-17T10:11:53;101860.00;;;32.10
71564;BMP180;59391;52.504;13.438;2022-10-17T10:14:35;101832.00;;;32.30
71564;BMP180;59391;52.504;13.438;2022-10-17T10:17:08;101850.00;;;32.60
71564;BMP180;59391;52.504;13.438;2022-10-17T10:19:51;101879.00;;;32.80
71564;BMP180;59391;52.504;13.438;2022-10-17T10:22:20;101881.00;;;32.50
71564;BMP180;59391;52.504;13.438;2022-10-17T10:27:41;101870.00;;;31.70
71564;BMP180;59391;52.504;13.438;2022-10-17T10:30:51;101883.00;;;31.30
71564;BMP180;59391;52.504;13.438;2022-10-17T10:33:42;101883.00;;;30.70
71564;BMP180;59391;52.504;13.438;2022-10-17T10:36:09;101810.00;;;30.90
71564;BMP180;59391;52.504;13.438;2022-10-17T10:38:39;101846.00;;;31.00
71564;BMP180;59391;52.504;13.438;2022-10-17T10:41:10;101881.00;;;31.00
71564;BMP180;59391;52.504;13.438;2022-10-17T10:43:44;101835.00;;;31.60
71564;BMP180;59391;52.504;13.438;2022-10-17T10:46:27;101874.00;;;31.90
71564;BMP180;59391;52.504;13.438;2022-10-17T10:51:54;101886.00;;;32.30
71564;BMP180;59391;52.504;13.438;2022-10-17T10:54:36;101870.00;;;32.40
71564;BMP180;59391;52.504;13.438;2022-10-17T10:57:09;101871.00;;;32.90
71564;BMP180;59391;52.504;13.438;2022-10-17T11:00:11;101839.00;;;32.80
71564;BMP180;59391;52.504;13.438;2022-10-17T11:02:59;101850.00;;;32.70
71564;BMP180;59391;52.504;13.438;2022-10-17T11:05:59;101812.00;;;33.50
71564;BMP180;59391;52.504;13.438;2022-10-17T11:08:46;101857.00;;;33.80
71564;BMP180;59391;52.504;13.438;2022-10-17T11:11:24;101855.00;;;34.00
71564;BMP180;59391;52.504;13.438;2022-10-17T11:14:02;101852.00;;;34.70
71564;BMP180;59391;52.504;13.438;2022-10-17T11:19:19;101843.00;;;34.80
71564;BMP180;59391;52.504;13.438;2022-10-17T11:22:11;101846.00;;;34.60
71564;BMP180;59391;52.504;13.438;2022-10-17T11:24:58;101837.00;;;34.90
71564;BMP180;59391;52.504;13.438;2022-10-17T11:27:28;101842.00;;;35.40
71564;BMP180;59391;52.504;13.438;2022-10-17T11:30:26;101838.00;;;35.40
71564;BMP180;59391;52.504;13.438;2022-10-17T11:33:00;101828.00;;;35.20
71564;BMP180;59391;52.504;13.438;2022-10-17T11:35:39;101843.00;;;35.50
71564;BMP180;59391;52.504;13.438;2022-10-17T11:38:46;101835.00;;;35.60
71564;BMP180;59391;52.504;13.438;2022-10-17T11:41:26;101846.00;;;35.30
71564;BMP180;59391;52.504;13.438;2022-10-17T11:44:04;101819.00;;;34.80
71564;BMP180;59391;52.504;13.438;2022-10-17T11:46:35;101831.00;;;34.40
71564;BMP180;59391;52.504;13.438;2022-10-17T11:49:21;101812.00;;;34.00
71564;BMP180;59391;52.504;13.438;2022-10-17T11:52:18;101829.00;;;33.90
71564;BMP180;59391;52.504;13.438;2022-10-17T11:55:04;101826.00;;;33.80
71564;BMP180;59391;52.504;13.438;2022-10-17T12:03:51;101824.00;;;33.60
71564;BMP180;59391;52.504;13.438;2022-10-17T12:06:44;101826.00;;;33.70
71564;BMP180;59391;52.504;13.438;2022-10-17T12:09:41;101824.00;;;33.80
71564;BMP180;59391;52.504;13.438;2022-10-17T12:12:08;101819.00;;;33.70
71564;BMP180;59391;52.504;13.438;2022-10-17T12:14:46;101815.00;;;33.50
71564;BMP180;59391;52.504;13.438;2022-10-17T12:17:33;101826.00;;;33.50
71564;BMP180;59391;52.504;13.438;2022-10-17T12:22:51;101822.00;;;33.10
71564;BMP180;59391;52.504;13.438;2022-10-17T12:25:33;101819.00;;;32.90
71564;BMP180;59391;52.504;13.438;2022-10-17T12:30:34;101794.00;;;32.20
71564;BMP180;59391;52.504;13.438;2022-10-17T12:33:01;101811.00;;;32.20
71564;BMP180;59391;52.504;13.438;2022-10-17T12:35:30;101769.00;;;32.30
71564;BMP180;59391;52.504;13.438;2022-10-17T12:38:02;101777.00;;;32.50
71564;BMP180;59391;52.504;13.438;2022-10-17T12:40:51;101763.00;;;32.60
71564;BMP180;59391;52.504;13.438;2022-10-17T12:45:57;101748.00;;;32.40
71564;BMP180;59391;52.504;13.438;2022-10-17T12:51:16;101797.00;;;32.20
71564;BMP180;59391;52.504;13.438;2022-10-17T12:53:52;101824.00;;;32.20
71564;BMP180;59391;52.504;13.438;2022-10-17T12:56:44;101817.00;;;32.00
71564;BMP180;59391;52.504;13.438;2022-10-17T12:59:27;101778.00;;;32.00
71564;BMP180;59391;52.504;13.438;2022-10-17T13:02:02;101817.00;;;31.80
71564;BMP180;59391;52.504;13.438;2022-10-17T13:04:29;101791.00;;;31.50
71564;BMP180;59391;52.504;13.438;2022-10-17T13:06:58;101783.00;;;31.30
71564;BMP180;59391;52.504;13.438;2022-10-17T13:09:27;101805.00;;;31.20
71564;BMP180;59391;52.504;13.438;2022-10-17T13:11:59;101731.00;;;31.10
71564;BMP180;59391;52.504;13.438;2022-10-17T13:14:26;101757.00;;;31.10
71564;BMP180;59391;52.504;13.438;2022-10-17T13:17:00;101783.00;;;30.90
71564;BMP180;59391;52.504;13.438;2022-10-17T13:19:31;101795.00;;;30.80
71564;BMP180;59391;52.504;13.438;2022-10-17T13:22:12;101805.00;;;30.70
71564;BMP180;59391;52.504;13.438;2022-10-17T13:24:40;101795.00;;;30.50
71564;BMP180;59391;52.504;13.438;2022-10-17T13:27:29;101802.00;;;30.50
71564;BMP180;59391;52.504;13.438;2022-10-17T13:29:57;101782.00;;;30.40
71564;BMP180;59391;52.504;13.438;2022-10-17T13:32:26;101795.00;;;30.40
71564;BMP180;59391;52.504;13.438;2022-10-17T13:35:13;101801.00;;;30.40
71564;BMP180;59391;52.504;13.438;2022-10-17T13:37:42;101786.00;;;30.40
71564;BMP180;59391;52.504;13.438;2022-10-17T13:40:23;101802.00;;;30.40
71564;BMP180;59391;52.504;13.438;2022-10-17T13:42:51;101774.00;;;30.70
71564;BMP180;59391;52.504;13.438;2022-10-17T13:45:35;101795.00;;;30.90
71564;BMP180;59391;52.504;13.438;2022-10-17T13:48:27;101778.00;;;30.80
71564;BMP180;59391;52.504;13.438;2022-10-17T13:51:01;101788.00;;;30.50
71564;BMP180;59391;52.504;13.438;2022-10-17T13:53:40;101780.00;;;30.30
71564;BMP180;59391;52.504;13.438;2022-10-17T13:56:23;101779.00;;;30.40
71564;BMP180;59391;52.504;13.438;2022-10-17T13:58:55;101804.00;;;30.30
71564;BMP180;59391;52.504;13.438;2022-10-17T14:01:24;101785.00;;;30.10
71564;BMP180;59391;52.504;13.438;2022-10-17T14:03:51;101805.00;;;30.00
71564;BMP180;59391;52.504;13.438;2022-10-17T14:06:29;101815.00;;;29.90
71564;BMP180;59391;52.504;13.438;2022-10-17T14:09:03;101783.00;;;29.90
71564;BMP180;59391;52.504;13.438;2022-10-17T14:11:44;101774.00;;;29.80
71564;BMP180;59391;52.504;13.438;2022-10-17T14:14:27;101768.00;;;29.80
71564;BMP180;59391;52.504;13.438;2022-10-17T14:33:22;101825.00;;;29.40
71564;BMP180;59391;52.504;13.438;2022-10-17T14:36:00;101805.00;;;29.50
71564;BMP180;59391;52.504;13.438;2022-10-17T14:38:29;101822.00;;;29.50
71564;BMP180;59391;52.504;13.438;2022-10-17T14:41:14;101806.00;;;29.40
71564;BMP180;59391;52.504;13.438;2022-10-17T14:43:43;101768.00;;;29.40
71564;BMP180;59391;52.504;13.438;2022-10-17T14:46:14;101776.00;;;29.30
71564;BMP180;59391;52.504;13.438;2022-10-17T14:48:41;101788.00;;;29.00
71564;BMP180;59391;52.504;13.438;2022-10-17T14:51:15;101824.00;;;28.90
71564;BMP180;59391;52.504;13.438;2022-10-17T14:53:57;101764.00;;;28.90
71564;BMP180;59391;52.504;13.438;2022-10-17T14:56:27;101819.00;;;28.80
71564;BMP180;59391;52.504;13.438;2022-10-17T14:58:58;101825.00;;;28.70
71564;BMP180;59391;52.504;13.438;2022-10-17T15:01:24;101789.00;;;28.60
71564;BMP180;59391;52.504;13.438;2022-10-17T15:03:49;101813.00;;;28.50
71564;BMP180;59391;52.504;13.438;2022-10-17T15:06:26;101829.00;;;28.40
71564;BMP180;59391;52.504;13.438;2022-10-17T15:08:56;101798.00;;;28.30
71564;BMP180;59391;52.504;13.438;2022-10-17T15:11:22;101833.00;;;28.30
71564;BMP180;59391;52.504;13.438;2022-10-17T15:13:49;101789.00;;;28.20
71564;BMP180;59391;52.504;13.438;2022-10-17T15:16:30;101806.00;;;28.20
71564;BMP180;59391;52.504;13.438;2022-10-17T15:18:56;101797.00;;;28.10
71564;BMP180;59391;52.504;13.438;2022-10-17T15:21:24;101836.00;;;28.10
71564;BMP180;59391;52.504;13.438;2022-10-17T15:23:50;101780.00;;;28.10
71564;BMP180;59391;52.504;13.438;2022-10-17T15:26:23;101795.00;;;28.00
71564;BMP180;59391;52.504;13.438;2022-10-17T15:28:51;101822.00;;;27.90
71564;BMP180;59391;52.504;13.438;2022-10-17T15:31:23;101797.00;;;28.00
71564;BMP180;59391;52.504;13.438;2022-10-17T15:33:49;101820.00;;;28.00
71564;BMP180;59391;52.504;13.438;2022-10-17T15:36:20;101828.00;;;27.90
71564;BMP180;59391;52.504;13.438;2022-10-17T15:38:48;101797.00;;;27.80
71564;BMP180;59391;52.504;13.438;2022-10-17T15:41:14;101834.00;;;27.90